Language selection

My Weather Profile Weather Topics  | 

Rankin - southern half: Past 24 Hour Conditions

 

Churchill Airport

02:00 AM CDT 04 August 2021
Disclaimer

This table is a summary of hourly weather conditions for the past 24 hours.
Please note that these observations might not always be representative of weather conditions over their associated marine area.

Date / Time
(CDT)
Wind(knots) Conditions Visibility(km) Pressure(kPa) Air tempC) Relative humidity(%) Dew pointC) Humidex
04 August 2021
2:00 N 17 gust 23 Light Rainshower 24 100.7 12 77 8 *
1:00 N 9 Mostly Cloudy 24 100.7 13 82 10 *
0:00 NNE 10 Cloudy 24 100.6 13 86 10 *
03 August 2021
23:00 N 12 Mostly Cloudy 24 100.6 13 84 11 *
22:00 NNE 10 Cloudy 24 100.5 13 85 11 *
21:00 NE 11 Cloudy 24 100.4 14 83 11 *
20:00 NE 12 gust 21 Mostly Cloudy 24 100.4 15 79 12 *
19:00 NNE 21 gust 34 Light Rainshower 13 100.2 21 63 14 24
18:00 W 11 Partly Cloudy 13 100.1 27 44 14 31
17:00 W 10 Partly Cloudy 13 100.1 29 41 14 32
16:00 WNW 9 Mainly Sunny 13 100.2 29 42 15 32
15:00 NW 13 Sunny 13 100.2 27 44 14 30
14:00 NW 17 Mainly Sunny 13 100.2 28 44 15 31
13:00 WNW 15 gust 21 Mainly Sunny 13 100.2 28 44 15 32
12:00 WNW 14 Smoke 10 100.2 26 51 15 30
11:00 W 11 Smoke 10 100.2 24 58 15 28
10:00 W 15 gust 22 Smoke 8 100.3 22 59 14 26
9:00 WSW 14 gust 19 Smoke 6 100.3 21 59 13 24
8:00 SW 11 Smoke 6 100.4 20 66 13 *
7:00 SW 11 Smoke 5 100.5 19 68 13 *
6:00 WSW 5 Smoke 6 100.6 19 62 12 *
5:00 W 11 gust 17 Cloudy 13 100.7 20 63 12 *
4:00 WSW 12 Cloudy 13 100.7 19 64 12 *
3:00 W 12 gust 18 Clear 24 100.7 19 66 12 *
2:00 W 13 Clear 24 100.8 19 66 13 *

Zoom-in to make a selection

Map of Hudson - Hudson Bay marine weather areas Arviat Airport Baker Lake Airport Chesterfield Inlet Airport Coral Harbour Airport Rankin Inlet Airport Sanikiluaq Airport Whale Cove Airport Kinngait (Cape Dorset Airport) Iqaluit Airport Wager Bay Kimmirut Airport Churchill Airport Fort Severn Airport Peawanuck Airport Moosonee Airport Eastmain Airport La Grande Rivière Airport Waskaganish Airport Wemindji Airport Akulivik Airport Inukjuak Airport Ivujivik Airport Kuujjuarapik Airport Puvirnituq Airport Umiujaq Airport Aupaluk Airport Kangiqsujuaq Airport Kangirsuk Airport Kangiqsualujjuaq Airport Kuujjuaq Airport Quaqtaq Airport Salluit Airport Tasiujaq Airport Cape Kakkiviak
Legend:
buoy Buoy
land station Land Station

Hudson - Hudson Bay Area

Another Region

What we are doing

Date modified: